sensor_id;sensor_type;location;lat;lon;timestamp;pressure;altitude;pressure_sealevel;temperature;humidity
70952;BME280;69214;55.880;37.542;2023-12-29T00:01:59;98035.59;;;-3.29;75.46
70952;BME280;69214;55.880;37.542;2023-12-29T00:04:26;98032.13;;;-3.29;75.62
70952;BME280;69214;55.880;37.542;2023-12-29T00:06:52;98028.78;;;-3.31;75.51
70952;BME280;69214;55.880;37.542;2023-12-29T00:09:18;98024.47;;;-3.32;75.54
70952;BME280;69214;55.880;37.542;2023-12-29T00:11:50;98019.31;;;-3.34;75.34
70952;BME280;69214;55.880;37.542;2023-12-29T00:14:17;98015.00;;;-3.35;75.37
70952;BME280;69214;55.880;37.542;2023-12-29T00:16:43;98002.19;;;-3.39;76.06
70952;BME280;69214;55.880;37.542;2023-12-29T00:19:11;98004.69;;;-3.38;75.44
70952;BME280;69214;55.880;37.542;2023-12-29T00:21:37;98001.31;;;-3.32;75.63
70952;BME280;69214;55.880;37.542;2023-12-29T00:24:07;97997.63;;;-3.31;75.64
70952;BME280;69214;55.880;37.542;2023-12-29T00:26:33;97990.28;;;-3.29;75.16
70952;BME280;69214;55.880;37.542;2023-12-29T00:29:00;97980.25;;;-3.27;75.67
70952;BME280;69214;55.880;37.542;2023-12-29T00:31:26;97982.38;;;-3.22;76.16
70952;BME280;69214;55.880;37.542;2023-12-29T00:33:52;97970.34;;;-3.18;76.02
70952;BME280;69214;55.880;37.542;2023-12-29T00:36:20;97961.13;;;-3.15;75.83
70952;BME280;69214;55.880;37.542;2023-12-29T00:38:48;97961.88;;;-3.21;75.53
70952;BME280;69214;55.880;37.542;2023-12-29T00:41:14;97949.72;;;-3.24;75.85
70952;BME280;69214;55.880;37.542;2023-12-29T00:43:42;97943.19;;;-3.21;75.48
70952;BME280;69214;55.880;37.542;2023-12-29T00:46:08;97962.72;;;-3.06;75.59
70952;BME280;69214;55.880;37.542;2023-12-29T00:48:35;97955.00;;;-3.01;75.88
70952;BME280;69214;55.880;37.542;2023-12-29T00:51:02;97944.31;;;-3.01;75.31
70952;BME280;69214;55.880;37.542;2023-12-29T00:53:30;97941.00;;;-3.03;75.33
70952;BME280;69214;55.880;37.542;2023-12-29T00:55:59;97942.22;;;-2.91;75.44
70952;BME280;69214;55.880;37.542;2023-12-29T00:58:26;97934.84;;;-2.89;75.43
70952;BME280;69214;55.880;37.542;2023-12-29T01:00:53;97924.34;;;-2.90;74.97
70952;BME280;69214;55.880;37.542;2023-12-29T01:03:20;97919.03;;;-2.90;75.43
70952;BME280;69214;55.880;37.542;2023-12-29T01:05:47;97927.31;;;-2.85;75.60
70952;BME280;69214;55.880;37.542;2023-12-29T01:08:13;97903.94;;;-2.98;75.93
70952;BME280;69214;55.880;37.542;2023-12-29T01:10:40;97906.06;;;-2.94;75.35
70952;BME280;69214;55.880;37.542;2023-12-29T01:13:06;97917.91;;;-2.96;74.98
70952;BME280;69214;55.880;37.542;2023-12-29T01:15:32;97908.63;;;-3.00;75.47
70952;BME280;69214;55.880;37.542;2023-12-29T01:17:58;97892.44;;;-3.13;75.49
70952;BME280;69214;55.880;37.542;2023-12-29T01:20:24;97895.75;;;-3.11;75.59
70952;BME280;69214;55.880;37.542;2023-12-29T01:22:50;97900.44;;;-3.13;75.43
70952;BME280;69214;55.880;37.542;2023-12-29T01:25:16;97910.00;;;-3.04;75.56
70952;BME280;69214;55.880;37.542;2023-12-29T01:27:44;97906.50;;;-3.05;75.25
70952;BME280;69214;55.880;37.542;2023-12-29T01:30:10;97869.53;;;-3.22;75.37
70952;BME280;69214;55.880;37.542;2023-12-29T01:32:37;97892.53;;;-3.07;75.53
70952;BME280;69214;55.880;37.542;2023-12-29T01:35:04;97875.69;;;-3.07;76.16
70952;BME280;69214;55.880;37.542;2023-12-29T01:37:31;97858.41;;;-3.11;75.67
70952;BME280;69214;55.880;37.542;2023-12-29T01:39:57;97861.53;;;-3.08;75.97
70952;BME280;69214;55.880;37.542;2023-12-29T01:42:24;97852.69;;;-3.08;76.00
70952;BME280;69214;55.880;37.542;2023-12-29T01:44:50;97850.66;;;-3.06;75.57
70952;BME280;69214;55.880;37.542;2023-12-29T01:47:20;97841.75;;;-3.13;75.45
70952;BME280;69214;55.880;37.542;2023-12-29T01:49:48;97848.00;;;-3.06;75.45
70952;BME280;69214;55.880;37.542;2023-12-29T01:52:18;97842.03;;;-3.08;75.43
70952;BME280;69214;55.880;37.542;2023-12-29T01:54:46;97824.00;;;-3.06;75.55
70952;BME280;69214;55.880;37.542;2023-12-29T01:57:14;97806.88;;;-3.12;75.38
70952;BME280;69214;55.880;37.542;2023-12-29T01:59:40;97815.09;;;-3.13;75.90
70952;BME280;69214;55.880;37.542;2023-12-29T02:02:06;97823.63;;;-3.03;75.65
70952;BME280;69214;55.880;37.542;2023-12-29T02:04:33;97817.47;;;-3.04;75.96
70952;BME280;69214;55.880;37.542;2023-12-29T02:06:59;97813.41;;;-3.00;76.01
70952;BME280;69214;55.880;37.542;2023-12-29T02:09:25;97803.38;;;-2.98;75.96
70952;BME280;69214;55.880;37.542;2023-12-29T02:11:51;97807.69;;;-2.97;75.44
70952;BME280;69214;55.880;37.542;2023-12-29T02:14:18;97818.19;;;-2.95;75.92
70952;BME280;69214;55.880;37.542;2023-12-29T02:21:49;97800.59;;;-2.89;75.93
70952;BME280;69214;55.880;37.542;2023-12-29T02:24:15;97793.03;;;-2.86;75.68
70952;BME280;69214;55.880;37.542;2023-12-29T02:26:44;97794.31;;;-2.82;75.39
70952;BME280;69214;55.880;37.542;2023-12-29T02:29:15;97778.31;;;-2.82;75.62
70952;BME280;69214;55.880;37.542;2023-12-29T02:31:44;97765.34;;;-2.85;75.43
70952;BME280;69214;55.880;37.542;2023-12-29T02:34:14;97753.00;;;-2.86;75.85
70952;BME280;69214;55.880;37.542;2023-12-29T02:36:41;97772.03;;;-2.74;75.62
70952;BME280;69214;55.880;37.542;2023-12-29T02:39:09;97767.31;;;-2.72;75.26
70952;BME280;69214;55.880;37.542;2023-12-29T02:41:38;97760.53;;;-2.75;75.25
70952;BME280;69214;55.880;37.542;2023-12-29T02:44:06;97759.50;;;-2.74;75.08
70952;BME280;69214;55.880;37.542;2023-12-29T02:46:32;97768.53;;;-2.75;75.30
70952;BME280;69214;55.880;37.542;2023-12-29T02:48:57;97757.84;;;-2.75;75.35
70952;BME280;69214;55.880;37.542;2023-12-29T02:51:24;97743.44;;;-2.80;75.19
70952;BME280;69214;55.880;37.542;2023-12-29T02:53:50;97746.16;;;-2.74;75.31
70952;BME280;69214;55.880;37.542;2023-12-29T02:56:16;97740.81;;;-2.74;75.70
70952;BME280;69214;55.880;37.542;2023-12-29T02:58:42;97734.84;;;-2.76;75.36
70952;BME280;69214;55.880;37.542;2023-12-29T03:01:08;97732.44;;;-2.71;75.30
70952;BME280;69214;55.880;37.542;2023-12-29T03:03:34;97734.91;;;-2.69;76.04
70952;BME280;69214;55.880;37.542;2023-12-29T03:06:00;97716.75;;;-2.80;75.21
70952;BME280;69214;55.880;37.542;2023-12-29T03:08:26;97725.69;;;-2.67;75.48
70952;BME280;69214;55.880;37.542;2023-12-29T03:10:51;97726.53;;;-2.66;75.47
70952;BME280;69214;55.880;37.542;2023-12-29T03:13:17;97731.22;;;-2.68;75.19
70952;BME280;69214;55.880;37.542;2023-12-29T03:15:43;97687.97;;;-2.85;75.43
70952;BME280;69214;55.880;37.542;2023-12-29T03:18:09;97721.38;;;-2.68;75.46
70952;BME280;69214;55.880;37.542;2023-12-29T03:20:35;97716.03;;;-2.68;75.41
70952;BME280;69214;55.880;37.542;2023-12-29T03:23:01;97706.00;;;-2.66;75.29
70952;BME280;69214;55.880;37.542;2023-12-29T03:25:27;97700.28;;;-2.63;75.47
70952;BME280;69214;55.880;37.542;2023-12-29T03:27:53;97710.75;;;-2.61;75.38
70952;BME280;69214;55.880;37.542;2023-12-29T03:30:21;97706.88;;;-2.58;75.86
70952;BME280;69214;55.880;37.542;2023-12-29T03:32:47;97697.03;;;-2.58;75.22
70952;BME280;69214;55.880;37.542;2023-12-29T03:35:13;97695.00;;;-2.56;75.33
70952;BME280;69214;55.880;37.542;2023-12-29T03:37:39;97689.47;;;-2.54;75.29
70952;BME280;69214;55.880;37.542;2023-12-29T03:40:07;97687.66;;;-2.47;75.43
70952;BME280;69214;55.880;37.542;2023-12-29T03:42:33;97684.63;;;-2.44;75.50
70952;BME280;69214;55.880;37.542;2023-12-29T03:45:00;97674.19;;;-2.39;75.06
70952;BME280;69214;55.880;37.542;2023-12-29T03:47:27;97671.13;;;-2.36;74.92
70952;BME280;69214;55.880;37.542;2023-12-29T03:49:53;97661.06;;;-2.34;75.02
70952;BME280;69214;55.880;37.542;2023-12-29T03:52:19;97656.56;;;-2.34;74.86
70952;BME280;69214;55.880;37.542;2023-12-29T03:54:45;97649.13;;;-2.38;75.49
70952;BME280;69214;55.880;37.542;2023-12-29T03:57:12;97653.06;;;-2.34;75.32
70952;BME280;69214;55.880;37.542;2023-12-29T03:59:37;97659.03;;;-2.32;75.54
70952;BME280;69214;55.880;37.542;2023-12-29T04:02:03;97657.00;;;-2.30;75.38
70952;BME280;69214;55.880;37.542;2023-12-29T04:04:29;97644.47;;;-2.30;75.36
70952;BME280;69214;55.880;37.542;2023-12-29T04:06:55;97634.56;;;-2.36;75.11
70952;BME280;69214;55.880;37.542;2023-12-29T04:09:21;97653.50;;;-2.31;75.27
70952;BME280;69214;55.880;37.542;2023-12-29T04:11:47;97636.22;;;-2.35;75.65
70952;BME280;69214;55.880;37.542;2023-12-29T04:14:13;97625.09;;;-2.38;75.33
70952;BME280;69214;55.880;37.542;2023-12-29T04:16:39;97622.81;;;-2.41;75.82
70952;BME280;69214;55.880;37.542;2023-12-29T04:19:05;97624.22;;;-2.45;75.85
70952;BME280;69214;55.880;37.542;2023-12-29T04:21:31;97623.59;;;-2.47;75.47
70952;BME280;69214;55.880;37.542;2023-12-29T04:23:56;97613.88;;;-2.55;75.89
70952;BME280;69214;55.880;37.542;2023-12-29T04:26:23;97605.44;;;-2.58;75.72
70952;BME280;69214;55.880;37.542;2023-12-29T04:28:49;97600.69;;;-2.63;76.46
70952;BME280;69214;55.880;37.542;2023-12-29T04:31:14;97593.88;;;-2.66;76.31
70952;BME280;69214;55.880;37.542;2023-12-29T04:33:40;97589.94;;;-2.70;75.85
70952;BME280;69214;55.880;37.542;2023-12-29T04:36:06;97586.03;;;-2.74;76.58
70952;BME280;69214;55.880;37.542;2023-12-29T04:38:32;97558.41;;;-2.87;76.48
70952;BME280;69214;55.880;37.542;2023-12-29T04:40:58;97583.75;;;-2.77;76.70
70952;BME280;69214;55.880;37.542;2023-12-29T04:43:24;97571.81;;;-2.81;76.95
70952;BME280;69214;55.880;37.542;2023-12-29T04:45:50;97573.44;;;-2.80;77.14
70952;BME280;69214;55.880;37.542;2023-12-29T04:48:16;97570.97;;;-2.81;76.91
70952;BME280;69214;55.880;37.542;2023-12-29T04:50:42;97562.78;;;-2.80;76.55
70952;BME280;69214;55.880;37.542;2023-12-29T04:53:08;97532.25;;;-2.99;77.22
70952;BME280;69214;55.880;37.542;2023-12-29T04:55:34;97561.56;;;-2.77;77.20
70952;BME280;69214;55.880;37.542;2023-12-29T04:58:00;97559.09;;;-2.79;77.10
70952;BME280;69214;55.880;37.542;2023-12-29T05:00:26;97549.38;;;-2.86;77.50
70952;BME280;69214;55.880;37.542;2023-12-29T05:02:52;97555.44;;;-2.71;77.53
70952;BME280;69214;55.880;37.542;2023-12-29T05:05:18;97556.47;;;-2.72;77.18
70952;BME280;69214;55.880;37.542;2023-12-29T05:07:44;97555.88;;;-2.68;77.68
70952;BME280;69214;55.880;37.542;2023-12-29T05:10:10;97558.78;;;-2.63;77.67
70952;BME280;69214;55.880;37.542;2023-12-29T05:12:36;97548.75;;;-2.61;77.76
70952;BME280;69214;55.880;37.542;2023-12-29T05:15:03;97516.59;;;-2.80;77.40
70952;BME280;69214;55.880;37.542;2023-12-29T05:17:30;97542.59;;;-2.61;76.97
70952;BME280;69214;55.880;37.542;2023-12-29T05:19:56;97539.09;;;-2.62;76.91
70952;BME280;69214;55.880;37.542;2023-12-29T05:22:22;97537.44;;;-2.63;77.17
70952;BME280;69214;55.880;37.542;2023-12-29T05:24:47;97541.75;;;-2.62;77.32
70952;BME280;69214;55.880;37.542;2023-12-29T05:27:13;97525.50;;;-2.67;77.50
70952;BME280;69214;55.880;37.542;2023-12-29T05:29:39;97529.66;;;-2.57;77.66
70952;BME280;69214;55.880;37.542;2023-12-29T05:32:05;97520.63;;;-2.56;77.18
70952;BME280;69214;55.880;37.542;2023-12-29T05:34:31;97515.28;;;-2.56;77.19
70952;BME280;69214;55.880;37.542;2023-12-29T05:36:57;97523.31;;;-2.56;77.37
70952;BME280;69214;55.880;37.542;2023-12-29T05:39:23;97521.47;;;-2.56;77.43
70952;BME280;69214;55.880;37.542;2023-12-29T05:41:50;97515.28;;;-2.56;77.43
70952;BME280;69214;55.880;37.542;2023-12-29T05:44:15;97521.06;;;-2.53;77.46
70952;BME280;69214;55.880;37.542;2023-12-29T05:46:46;97521.06;;;-2.53;77.71
70952;BME280;69214;55.880;37.542;2023-12-29T05:49:11;97525.38;;;-2.52;77.12
70952;BME280;69214;55.880;37.542;2023-12-29T05:51:37;97521.25;;;-2.54;77.68
70952;BME280;69214;55.880;37.542;2023-12-29T05:54:03;97512.00;;;-2.58;77.85
70952;BME280;69214;55.880;37.542;2023-12-29T05:56:29;97493.81;;;-2.76;77.66
70952;BME280;69214;55.880;37.542;2023-12-29T05:58:55;97509.06;;;-2.70;77.40
70952;BME280;69214;55.880;37.542;2023-12-29T06:01:21;97507.78;;;-2.74;77.66
70952;BME280;69214;55.880;37.542;2023-12-29T06:03:47;97498.88;;;-2.88;77.06
70952;BME280;69214;55.880;37.542;2023-12-29T06:06:13;97516.72;;;-2.88;77.26
70952;BME280;69214;55.880;37.542;2023-12-29T06:08:38;97510.53;;;-2.96;77.62
70952;BME280;69214;55.880;37.542;2023-12-29T06:11:04;97506.22;;;-2.97;77.67
70952;BME280;69214;55.880;37.542;2023-12-29T06:13:30;97463.38;;;-3.16;77.73
70952;BME280;69214;55.880;37.542;2023-12-29T06:15:56;97499.84;;;-2.96;77.85
70952;BME280;69214;55.880;37.542;2023-12-29T06:18:22;97502.75;;;-2.90;77.59
70952;BME280;69214;55.880;37.542;2023-12-29T06:20:48;97500.34;;;-2.85;78.29
70952;BME280;69214;55.880;37.542;2023-12-29T06:23:15;97502.41;;;-2.81;77.96
70952;BME280;69214;55.880;37.542;2023-12-29T06:25:42;97505.31;;;-2.76;78.00
70952;BME280;69214;55.880;37.542;2023-12-29T06:28:08;97501.25;;;-2.72;77.69
70952;BME280;69214;55.880;37.542;2023-12-29T06:30:34;97477.00;;;-2.77;77.19
70952;BME280;69214;55.880;37.542;2023-12-29T06:33:00;97493.66;;;-2.68;77.76
70952;BME280;69214;55.880;37.542;2023-12-29T06:35:26;97480.13;;;-2.67;77.17
70952;BME280;69214;55.880;37.542;2023-12-29T06:37:52;97478.28;;;-2.66;76.98
70952;BME280;69214;55.880;37.542;2023-12-29T06:40:18;97474.00;;;-2.61;77.27
70952;BME280;69214;55.880;37.542;2023-12-29T06:42:44;97467.00;;;-2.62;77.77
70952;BME280;69214;55.880;37.542;2023-12-29T06:45:11;97487.19;;;-2.52;77.25
70952;BME280;69214;55.880;37.542;2023-12-29T06:47:37;97487.63;;;-2.49;77.19
70952;BME280;69214;55.880;37.542;2023-12-29T06:50:03;97478.16;;;-2.51;77.27
70952;BME280;69214;55.880;37.542;2023-12-29T06:52:31;97490.13;;;-2.41;77.92
70952;BME280;69214;55.880;37.542;2023-12-29T06:55:00;97478.22;;;-2.38;77.77
70952;BME280;69214;55.880;37.542;2023-12-29T06:57:31;97460.31;;;-2.44;77.03
70952;BME280;69214;55.880;37.542;2023-12-29T06:59:57;97481.13;;;-2.33;77.05
70952;BME280;69214;55.880;37.542;2023-12-29T07:02:23;97486.25;;;-2.32;77.57
70952;BME280;69214;55.880;37.542;2023-12-29T07:04:49;97476.81;;;-2.28;77.29
70952;BME280;69214;55.880;37.542;2023-12-29T07:07:14;97464.06;;;-2.32;77.20
70952;BME280;69214;55.880;37.542;2023-12-29T07:09:40;97456.50;;;-2.22;77.61
70952;BME280;69214;55.880;37.542;2023-12-29T07:12:07;97442.53;;;-2.24;77.67
70952;BME280;69214;55.880;37.542;2023-12-29T07:14:33;97456.13;;;-2.12;77.61
70952;BME280;69214;55.880;37.542;2023-12-29T07:17:02;97428.56;;;-2.19;77.31
70952;BME280;69214;55.880;37.542;2023-12-29T07:19:28;97465.41;;;-2.02;77.18
70952;BME280;69214;55.880;37.542;2023-12-29T07:22:03;97445.84;;;-2.09;77.05
70952;BME280;69214;55.880;37.542;2023-12-29T07:24:31;97464.19;;;-1.99;76.95
70952;BME280;69214;55.880;37.542;2023-12-29T07:26:57;97460.28;;;-1.97;77.68
70952;BME280;69214;55.880;37.542;2023-12-29T07:29:23;97459.06;;;-1.94;76.98
70952;BME280;69214;55.880;37.542;2023-12-29T07:31:49;97466.25;;;-1.88;77.83
70952;BME280;69214;55.880;37.542;2023-12-29T07:34:15;97467.50;;;-1.84;77.61
70952;BME280;69214;55.880;37.542;2023-12-29T07:36:41;97460.72;;;-1.80;76.84
70952;BME280;69214;55.880;37.542;2023-12-29T07:39:07;97462.78;;;-1.75;77.07
70952;BME280;69214;55.880;37.542;2023-12-29T07:41:33;97451.91;;;-1.74;76.68
70952;BME280;69214;55.880;37.542;2023-12-29T07:43:59;97459.94;;;-1.67;77.33
70952;BME280;69214;55.880;37.542;2023-12-29T07:46:25;97457.88;;;-1.65;76.91
70952;BME280;69214;55.880;37.542;2023-12-29T07:48:52;97448.22;;;-1.59;77.15
70952;BME280;69214;55.880;37.542;2023-12-29T07:51:18;97450.28;;;-1.55;77.05
70952;BME280;69214;55.880;37.542;2023-12-29T07:53:44;97447.81;;;-1.56;77.15
70952;BME280;69214;55.880;37.542;2023-12-29T07:56:10;97449.44;;;-1.49;77.05
70952;BME280;69214;55.880;37.542;2023-12-29T07:58:36;97433.00;;;-1.46;77.19
70952;BME280;69214;55.880;37.542;2023-12-29T08:01:03;97431.75;;;-1.43;76.73
70952;BME280;69214;55.880;37.542;2023-12-29T08:03:28;97431.97;;;-1.45;76.70
70952;BME280;69214;55.880;37.542;2023-12-29T08:05:54;97414.28;;;-1.46;76.30
70952;BME280;69214;55.880;37.542;2023-12-29T08:08:20;97440.19;;;-1.26;76.57
70952;BME280;69214;55.880;37.542;2023-12-29T08:10:46;97433.19;;;-1.21;76.85
70952;BME280;69214;55.880;37.542;2023-12-29T08:13:12;97379.91;;;-1.42;76.76
70952;BME280;69214;55.880;37.542;2023-12-29T08:15:38;97421.84;;;-1.10;76.63
70952;BME280;69214;55.880;37.542;2023-12-29T08:18:05;97433.38;;;-1.03;76.48
70952;BME280;69214;55.880;37.542;2023-12-29T08:20:32;97425.53;;;-0.98;76.82
70952;BME280;69214;55.880;37.542;2023-12-29T08:22:57;97407.84;;;-1.05;76.22
70952;BME280;69214;55.880;37.542;2023-12-29T08:25:23;97430.47;;;-0.88;76.49
70952;BME280;69214;55.880;37.542;2023-12-29T08:27:49;97426.34;;;-0.84;76.48
70952;BME280;69214;55.880;37.542;2023-12-29T08:30:15;97422.41;;;-0.81;75.99
70952;BME280;69214;55.880;37.542;2023-12-29T08:32:41;97413.97;;;-0.78;76.42
70952;BME280;69214;55.880;37.542;2023-12-29T08:35:08;97401.22;;;-0.83;75.62
70952;BME280;69214;55.880;37.542;2023-12-29T08:37:34;97409.00;;;-0.68;76.65
70952;BME280;69214;55.880;37.542;2023-12-29T08:40:00;97406.28;;;-0.61;75.68
70952;BME280;69214;55.880;37.542;2023-12-29T08:42:26;97407.31;;;-0.56;76.70
70952;BME280;69214;55.880;37.542;2023-12-29T08:44:53;97399.25;;;-0.49;75.60
70952;BME280;69214;55.880;37.542;2023-12-29T08:47:19;97396.53;;;-0.43;76.15
70952;BME280;69214;55.880;37.542;2023-12-29T08:49:45;97394.88;;;-0.37;75.61
70952;BME280;69214;55.880;37.542;2023-12-29T08:52:12;97389.69;;;-0.32;76.17
70952;BME280;69214;55.880;37.542;2023-12-29T08:54:38;97384.75;;;-0.35;75.79
70952;BME280;69214;55.880;37.542;2023-12-29T08:57:04;97397.28;;;-0.29;75.59
70952;BME280;69214;55.880;37.542;2023-12-29T08:59:32;97387.78;;;-0.25;76.43
70952;BME280;69214;55.880;37.542;2023-12-29T09:01:58;97370.06;;;-0.26;75.77
70952;BME280;69214;55.880;37.542;2023-12-29T09:04:25;97375.41;;;-0.19;75.30
70952;BME280;69214;55.880;37.542;2023-12-29T09:06:53;97377.44;;;-0.15;75.97
70952;BME280;69214;55.880;37.542;2023-12-29T09:09:19;97375.78;;;-0.16;76.22
70952;BME280;69214;55.880;37.542;2023-12-29T09:11:45;97376.19;;;-0.12;75.80
70952;BME280;69214;55.880;37.542;2023-12-29T09:14:13;97372.03;;;-0.08;76.08
70952;BME280;69214;55.880;37.542;2023-12-29T09:16:38;97358.63;;;-0.08;75.36
70952;BME280;69214;55.880;37.542;2023-12-29T09:19:06;97365.13;;;0.03;76.21
70952;BME280;69214;55.880;37.542;2023-12-29T09:21:31;97363.44;;;0.08;75.18
70952;BME280;69214;55.880;37.542;2023-12-29T09:23:57;97326.69;;;-0.10;76.14
70952;BME280;69214;55.880;37.542;2023-12-29T09:26:24;97355.19;;;0.10;75.09
70952;BME280;69214;55.880;37.542;2023-12-29T09:28:50;97346.38;;;0.03;75.17
70952;BME280;69214;55.880;37.542;2023-12-29T09:31:15;97350.47;;;0.05;75.58
70952;BME280;69214;55.880;37.542;2023-12-29T09:33:41;97325.44;;;-0.07;75.97
70952;BME280;69214;55.880;37.542;2023-12-29T09:36:07;97351.28;;;0.06;75.51
70952;BME280;69214;55.880;37.542;2023-12-29T09:38:33;97343.41;;;0.11;75.30
70952;BME280;69214;55.880;37.542;2023-12-29T09:41:04;97350.38;;;0.18;76.16
70952;BME280;69214;55.880;37.542;2023-12-29T09:43:31;97343.41;;;0.11;76.07
70952;BME280;69214;55.880;37.542;2023-12-29T09:45:58;97356.56;;;0.19;75.23
70952;BME280;69214;55.880;37.542;2023-12-29T09:48:27;97351.63;;;0.16;76.14
70952;BME280;69214;55.880;37.542;2023-12-29T09:50:54;97359.84;;;0.21;76.05
70952;BME280;69214;55.880;37.542;2023-12-29T09:53:20;97353.88;;;0.19;75.76
70952;BME280;69214;55.880;37.542;2023-12-29T09:55:51;97350.53;;;0.23;75.49
70952;BME280;69214;55.880;37.542;2023-12-29T09:58:19;97332.19;;;0.20;76.25
70952;BME280;69214;55.880;37.542;2023-12-29T10:00:49;97329.84;;;0.30;75.73
70952;BME280;69214;55.880;37.542;2023-12-29T10:03:15;97323.38;;;0.38;75.69
70952;BME280;69214;55.880;37.542;2023-12-29T10:05:42;97320.44;;;0.46;75.63
70952;BME280;69214;55.880;37.542;2023-12-29T10:08:09;97317.16;;;0.44;75.57
70952;BME280;69214;55.880;37.542;2023-12-29T10:10:37;97312.41;;;0.64;75.69
70952;BME280;69214;55.880;37.542;2023-12-29T10:13:06;97322.03;;;0.72;75.12
70952;BME280;69214;55.880;37.542;2023-12-29T10:16:08;97318.69;;;0.77;75.40
70952;BME280;69214;55.880;37.542;2023-12-29T10:18:47;97327.19;;;0.74;75.58
70952;BME280;69214;55.880;37.542;2023-12-29T10:21:33;97333.44;;;0.68;75.46
70952;BME280;69214;55.880;37.542;2023-12-29T10:24:14;97341.56;;;0.61;75.38
70952;BME280;69214;55.880;37.542;2023-12-29T10:26:42;97325.66;;;0.59;75.06
70952;BME280;69214;55.880;37.542;2023-12-29T10:29:10;97310.31;;;0.48;75.22
70952;BME280;69214;55.880;37.542;2023-12-29T10:31:36;97343.78;;;0.64;76.04
70952;BME280;69214;55.880;37.542;2023-12-29T10:34:24;97325.59;;;0.66;75.52
70952;BME280;69214;55.880;37.542;2023-12-29T10:36:59;97321.66;;;0.69;75.45
70952;BME280;69214;55.880;37.542;2023-12-29T10:39:25;97331.34;;;0.70;76.24
70952;BME280;69214;55.880;37.542;2023-12-29T10:42:05;97322.84;;;0.73;75.20
70952;BME280;69214;55.880;37.542;2023-12-29T10:44:36;97321.00;;;0.73;76.16
70952;BME280;69214;55.880;37.542;2023-12-29T10:47:12;97309.28;;;0.68;75.60
70952;BME280;69214;55.880;37.542;2023-12-29T10:49:40;97321.38;;;0.77;75.56
70952;BME280;69214;55.880;37.542;2023-12-29T10:52:13;97312.88;;;0.80;76.32
70952;BME280;69214;55.880;37.542;2023-12-29T10:54:43;97317.56;;;0.84;76.24
70952;BME280;69214;55.880;37.542;2023-12-29T10:57:11;97319.59;;;0.89;75.91
70952;BME280;69214;55.880;37.542;2023-12-29T10:59:38;97313.34;;;0.95;75.91
70952;BME280;69214;55.880;37.542;2023-12-29T11:02:04;97312.88;;;0.98;75.82
70952;BME280;69214;55.880;37.542;2023-12-29T11:04:31;97305.78;;;1.04;75.18
70952;BME280;69214;55.880;37.542;2023-12-29T11:06:57;97303.34;;;1.02;75.63
70952;BME280;69214;55.880;37.542;2023-12-29T11:09:30;97312.97;;;1.10;75.65
70952;BME280;69214;55.880;37.542;2023-12-29T11:11:59;97273.50;;;0.92;75.95
70952;BME280;69214;55.880;37.542;2023-12-29T11:14:25;97309.59;;;1.14;75.87
70952;BME280;69214;55.880;37.542;2023-12-29T11:16:54;97311.00;;;1.17;76.31
70952;BME280;69214;55.880;37.542;2023-12-29T11:19:21;97313.63;;;1.23;75.65
70952;BME280;69214;55.880;37.542;2023-12-29T11:21:51;97311.53;;;1.25;75.87
70952;BME280;69214;55.880;37.542;2023-12-29T11:24:19;97311.16;;;1.22;76.12
70952;BME280;69214;55.880;37.542;2023-12-29T11:26:45;97308.78;;;1.14;75.76
70952;BME280;69214;55.880;37.542;2023-12-29T11:29:11;97313.56;;;1.12;76.31
70952;BME280;69214;55.880;37.542;2023-12-29T11:31:40;97317.72;;;1.08;75.93
70952;BME280;69214;55.880;37.542;2023-12-29T11:34:14;97299.53;;;0.91;76.62
70952;BME280;69214;55.880;37.542;2023-12-29T11:36:45;97299.84;;;1.02;77.03
70952;BME280;69214;55.880;37.542;2023-12-29T11:39:27;97307.97;;;1.13;77.17
70952;BME280;69214;55.880;37.542;2023-12-29T11:42:03;97312.88;;;1.16;76.35
70952;BME280;69214;55.880;37.542;2023-12-29T11:44:32;97317.22;;;1.17;77.51
70952;BME280;69214;55.880;37.542;2023-12-29T11:46:59;97318.84;;;1.18;77.35
70952;BME280;69214;55.880;37.542;2023-12-29T11:49:25;97304.38;;;1.19;77.25
70952;BME280;69214;55.880;37.542;2023-12-29T11:51:52;97305.41;;;1.18;76.84
70952;BME280;69214;55.880;37.542;2023-12-29T11:54:27;97313.03;;;1.21;76.29
70952;BME280;69214;55.880;37.542;2023-12-29T11:56:53;97308.31;;;1.17;76.67
70952;BME280;69214;55.880;37.542;2023-12-29T11:59:20;97313.03;;;1.21;76.65
70952;BME280;69214;55.880;37.542;2023-12-29T12:01:47;97302.13;;;1.16;77.26
70952;BME280;69214;55.880;37.542;2023-12-29T12:04:37;97313.41;;;1.25;77.19
70952;BME280;69214;55.880;37.542;2023-12-29T12:07:04;97309.88;;;1.24;76.65
70952;BME280;69214;55.880;37.542;2023-12-29T12:09:30;97306.47;;;1.17;76.67
70952;BME280;69214;55.880;37.542;2023-12-29T12:11:56;97314.66;;;1.22;77.79
70952;BME280;69214;55.880;37.542;2023-12-29T12:14:45;97311.75;;;1.24;77.43
70952;BME280;69214;55.880;37.542;2023-12-29T12:17:11;97311.53;;;1.25;76.98
70952;BME280;69214;55.880;37.542;2023-12-29T12:19:37;97271.41;;;0.94;77.38
70952;BME280;69214;55.880;37.542;2023-12-29T12:22:06;97311.84;;;1.17;77.24
70952;BME280;69214;55.880;37.542;2023-12-29T12:24:32;97317.13;;;1.24;76.56
70952;BME280;69214;55.880;37.542;2023-12-29T12:27:01;97321.81;;;1.28;76.83
70952;BME280;69214;55.880;37.542;2023-12-29T12:29:28;97299.69;;;1.15;76.71
70952;BME280;69214;55.880;37.542;2023-12-29T12:31:57;97327.19;;;1.28;77.46
70952;BME280;69214;55.880;37.542;2023-12-29T12:34:24;97308.25;;;1.23;77.79
70952;BME280;69214;55.880;37.542;2023-12-29T12:36:51;97319.00;;;1.23;77.22
70952;BME280;69214;55.880;37.542;2023-12-29T12:39:17;97322.72;;;1.22;77.35
70952;BME280;69214;55.880;37.542;2023-12-29T12:41:44;97310.34;;;1.21;77.48
70952;BME280;69214;55.880;37.542;2023-12-29T12:49:12;97350.03;;;1.19;77.68
70952;BME280;69214;55.880;37.542;2023-12-29T12:51:39;97343.84;;;1.19;77.69
70952;BME280;69214;55.880;37.542;2023-12-29T12:54:06;97349.06;;;1.14;77.22
70952;BME280;69214;55.880;37.542;2023-12-29T12:56:32;97352.78;;;1.13;78.14
70952;BME280;69214;55.880;37.542;2023-12-29T12:58:58;97351.00;;;1.07;77.46
70952;BME280;69214;55.880;37.542;2023-12-29T13:01:27;97352.41;;;1.09;78.47
70952;BME280;69214;55.880;37.542;2023-12-29T13:03:56;97366.44;;;1.11;77.77